Time;durP1;ratioP1;P1;durP2;ratioP2;P2;SDS_P1;SDS_P2;PMS_P1;PMS_P2;Temp;Humidity;BMP_temperature;BMP_pressure;BME280_temperature;BME280_humidity;BME280_pressure;Samples;Min_cycle;Max_cycle;Signal;HPM_P1;HPM_P2
2022/02/22 00:01:46;;;;;;;1.30;1.20;;;4.80;99.90;;;;;;4974452;28;20575;-58
2022/02/22 00:04:12;;;;;;;1.73;1.07;;;4.60;99.90;;;;;;4974423;28;20174;-56
2022/02/22 00:06:37;;;;;;;1.80;1.07;;;4.10;99.90;;;;;;4974129;28;20221;-59
2022/02/22 00:09:03;;;;;;;0.93;0.70;;;3.70;99.90;;;;;;4974107;28;20178;-55
2022/02/22 00:11:29;;;;;;;2.70;1.00;;;3.50;99.90;;;;;;4974335;28;20543;-58
2022/02/22 00:13:54;;;;;;;0.83;0.80;;;3.40;99.90;;;;;;4973971;28;20174;-56
2022/02/22 00:16:21;;;;;;;1.53;0.80;;;3.40;99.90;;;;;;4973896;28;20202;-56
2022/02/22 00:18:46;;;;;;;2.40;1.30;;;3.50;99.90;;;;;;4974130;28;20647;-59
2022/02/22 00:21:12;;;;;;;2.83;1.47;;;3.50;99.90;;;;;;4974020;28;20193;-56
2022/02/22 00:23:38;;;;;;;1.77;1.63;;;3.50;99.90;;;;;;4972615;28;20178;-60
2022/02/22 00:26:05;;;;;;;3.67;1.73;;;3.50;99.90;;;;;;4973568;28;20194;-59
2022/02/22 00:28:30;;;;;;;2.20;1.97;;;3.60;99.90;;;;;;4973918;28;20209;-59
2022/02/22 00:30:56;;;;;;;5.23;1.87;;;3.70;99.90;;;;;;4974229;28;20566;-58
2022/02/22 00:33:21;;;;;;;5.77;2.10;;;3.70;99.90;;;;;;4973980;28;20170;-61
2022/02/22 00:35:47;;;;;;;3.70;2.17;;;3.80;99.90;;;;;;4973525;28;20260;-61
2022/02/22 00:38:13;;;;;;;4.40;1.90;;;3.80;99.90;;;;;;4972816;28;20235;-56
2022/02/22 00:40:39;;;;;;;5.73;2.13;;;3.90;99.90;;;;;;4973687;28;20587;-56
2022/02/22 00:43:05;;;;;;;3.33;2.13;;;4.00;99.90;;;;;;4973885;28;20169;-58
2022/02/22 00:45:32;;;;;;;4.07;2.17;;;4.00;99.90;;;;;;4973416;28;20193;-59
2022/02/22 00:47:57;;;;;;;5.57;2.50;;;4.10;99.90;;;;;;4973708;28;20286;-59
2022/02/22 00:50:23;;;;;;;3.50;2.17;;;4.10;99.90;;;;;;4973711;28;20257;-59
2022/02/22 00:52:48;;;;;;;3.10;2.03;;;4.20;99.90;;;;;;4971230;28;20182;-58
2022/02/22 00:55:14;;;;;;;5.93;2.17;;;4.20;99.90;;;;;;4973399;28;20229;-56
2022/02/22 00:57:41;;;;;;;4.07;2.20;;;4.20;99.90;;;;;;4973639;28;20706;-55
2022/02/22 01:00:08;;;;;;;4.53;2.23;;;4.20;99.90;;;;;;4973290;28;20166;-57
2022/02/22 01:02:33;;;;;;;7.30;2.40;;;4.20;99.90;;;;;;4973586;28;20182;-62
2022/02/22 01:04:59;;;;;;;3.60;2.00;;;4.30;99.90;;;;;;4973118;28;20296;-55
2022/02/22 01:07:24;;;;;;;4.50;2.17;;;4.40;99.90;;;;;;4972909;28;20288;-58
2022/02/22 01:09:50;;;;;;;5.23;2.20;;;4.40;99.90;;;;;;4973545;28;20236;-57
2022/02/22 01:12:17;;;;;;;4.90;2.40;;;4.40;99.90;;;;;;4973494;28;20204;-62
2022/02/22 01:14:43;;;;;;;3.97;2.17;;;4.40;99.90;;;;;;4973251;28;20194;-58
2022/02/22 01:17:09;;;;;;;5.30;2.10;;;4.30;99.90;;;;;;4973144;28;20243;-61
2022/02/22 01:19:35;;;;;;;4.63;2.33;;;4.30;99.90;;;;;;4972062;28;20170;-59
2022/02/22 01:22:01;;;;;;;3.40;2.20;;;4.40;99.90;;;;;;4972170;28;20516;-59
2022/02/22 01:24:26;;;;;;;5.60;2.13;;;4.50;99.90;;;;;;4972151;28;20185;-57
2022/02/22 01:26:52;;;;;;;7.30;2.73;;;4.50;99.90;;;;;;4973202;28;20185;-60
2022/02/22 01:29:19;;;;;;;4.80;2.27;;;4.50;99.90;;;;;;4972913;28;20205;-61
2022/02/22 01:31:44;;;;;;;5.00;2.30;;;4.50;99.90;;;;;;4973043;28;20182;-59
2022/02/22 01:34:10;;;;;;;6.37;2.60;;;4.50;99.90;;;;;;4973113;28;20607;-61
2022/02/22 01:36:36;;;;;;;7.63;3.10;;;4.50;99.90;;;;;;4971757;28;20212;-61
2022/02/22 01:39:03;;;;;;;7.03;2.60;;;4.30;99.90;;;;;;4972820;28;20689;-56
2022/02/22 01:41:29;;;;;;;4.30;2.17;;;4.10;99.90;;;;;;4972871;28;20229;-61
2022/02/22 01:43:55;;;;;;;4.17;2.20;;;4.10;99.90;;;;;;4972909;28;20631;-56
2022/02/22 01:46:21;;;;;;;5.20;2.73;;;4.10;99.90;;;;;;4972702;28;20200;-62
2022/02/22 01:48:47;;;;;;;4.00;2.37;;;4.10;99.90;;;;;;4972700;28;20536;-55
2022/02/22 01:51:12;;;;;;;4.13;2.43;;;4.00;99.90;;;;;;4972641;28;20174;-55
2022/02/22 01:53:38;;;;;;;4.43;2.10;;;3.60;99.90;;;;;;4971210;28;20227;-59
2022/02/22 01:56:07;;;;;;;4.77;2.10;;;3.80;99.90;;;;;;4972586;28;20194;-61
2022/02/22 01:58:34;;;;;;;6.07;2.50;;;3.80;99.90;;;;;;4972658;28;21072;-60
2022/02/22 02:00:59;;;;;;;5.13;2.53;;;3.80;99.90;;;;;;4972745;28;20312;-57
2022/02/22 02:03:26;;;;;;;3.73;2.30;;;3.80;99.90;;;;;;4972672;28;20858;-60
2022/02/22 02:05:52;;;;;;;3.70;2.40;;;3.80;99.90;;;;;;4972180;28;20202;-62
2022/02/22 02:08:18;;;;;;;2.47;2.03;;;3.70;99.90;;;;;;4971748;28;20184;-57
2022/02/22 02:10:44;;;;;;;4.30;2.40;;;3.80;99.90;;;;;;4972659;28;20178;-61
2022/02/22 02:13:10;;;;;;;1.77;1.67;;;3.80;99.90;;;;;;4972684;28;20170;-62
2022/02/22 02:15:36;;;;;;;6.17;2.40;;;3.80;99.90;;;;;;4972489;28;20201;-58
2022/02/22 02:18:01;;;;;;;4.90;2.40;;;3.70;99.90;;;;;;4972530;28;20622;-59
2022/02/22 02:20:27;;;;;;;5.17;2.43;;;3.60;99.90;;;;;;4972491;28;20264;-61
2022/02/22 02:22:52;;;;;;;5.23;2.43;;;3.60;99.90;;;;;;4972662;28;20214;-61
2022/02/22 02:25:18;;;;;;;3.70;2.50;;;3.50;99.90;;;;;;4972320;28;20190;-59
2022/02/22 02:27:44;;;;;;;5.73;2.70;;;3.50;99.90;;;;;;4972413;28;20261;-54
2022/02/22 02:30:11;;;;;;;3.93;2.37;;;3.40;99.90;;;;;;4972267;28;20177;-56
2022/02/22 02:32:37;;;;;;;7.53;2.60;;;3.30;99.90;;;;;;4972359;28;20555;-58
2022/02/22 02:35:04;;;;;;;6.40;2.50;;;3.30;99.90;;;;;;4971831;28;20209;-56
2022/02/22 02:37:30;;;;;;;6.07;2.30;;;3.30;99.90;;;;;;4971875;28;20249;-57
2022/02/22 02:39:55;;;;;;;5.10;2.50;;;3.20;99.90;;;;;;4971627;28;20173;-55
2022/02/22 02:42:21;;;;;;;6.83;3.00;;;3.20;99.90;;;;;;4972513;28;20180;-55
2022/02/22 02:44:49;;;;;;;4.97;2.43;;;3.20;99.90;;;;;;4970767;28;20190;-56
2022/02/22 02:47:15;;;;;;;4.87;2.77;;;3.20;99.90;;;;;;4972155;28;20228;-57
2022/02/22 02:49:42;;;;;;;6.73;2.80;;;3.20;99.90;;;;;;4974891;28;20202;-60
2022/02/22 02:52:08;;;;;;;6.40;2.90;;;3.20;99.90;;;;;;4975714;28;20233;-57
2022/02/22 02:54:35;;;;;;;6.80;2.70;;;3.20;99.90;;;;;;4975425;28;20232;-56
2022/02/22 02:57:01;;;;;;;6.00;3.00;;;3.30;99.90;;;;;;4975515;28;20833;-55
2022/02/22 02:59:26;;;;;;;7.93;2.70;;;3.30;99.90;;;;;;4975795;28;20170;-59
2022/02/22 03:01:52;;;;;;;5.50;2.40;;;3.40;99.90;;;;;;4975078;28;20236;-56
2022/02/22 03:04:19;;;;;;;6.27;2.93;;;3.40;99.90;;;;;;4975542;28;20205;-57
2022/02/22 03:06:45;;;;;;;7.20;2.83;;;3.40;99.90;;;;;;4975141;28;20206;-57
2022/02/22 03:09:12;;;;;;;4.90;2.10;;;3.40;99.90;;;;;;4975489;28;20313;-55
2022/02/22 03:11:38;;;;;;;4.93;2.40;;;3.50;99.90;;;;;;4975703;28;20535;-58
2022/02/22 03:14:05;;;;;;;5.97;2.20;;;3.60;99.90;;;;;;4975154;28;20177;-57
2022/02/22 03:16:31;;;;;;;5.50;2.30;;;3.60;99.90;;;;;;4974814;28;20212;-54
2022/02/22 03:18:57;;;;;;;5.53;2.37;;;3.70;99.90;;;;;;4974963;28;20178;-57
2022/02/22 03:21:22;;;;;;;5.63;2.67;;;3.70;99.90;;;;;;4973911;28;20173;-55
2022/02/22 03:23:48;;;;;;;5.83;2.53;;;3.80;99.90;;;;;;4975185;28;20651;-54
2022/02/22 03:26:14;;;;;;;5.70;2.30;;;3.80;99.90;;;;;;4975154;28;20804;-54
2022/02/22 03:28:39;;;;;;;4.80;2.30;;;3.80;99.90;;;;;;4973748;28;20636;-53
2022/02/22 03:31:05;;;;;;;5.40;2.30;;;3.80;99.90;;;;;;4975061;28;20229;-55
2022/02/22 03:33:32;;;;;;;4.63;2.37;;;3.90;99.90;;;;;;4974823;28;20306;-54
2022/02/22 03:35:58;;;;;;;9.40;2.63;;;4.00;99.90;;;;;;4974910;28;20202;-57
2022/02/22 03:38:24;;;;;;;4.93;2.20;;;4.00;99.90;;;;;;4974204;28;20248;-54
2022/02/22 03:40:50;;;;;;;3.70;1.90;;;4.00;99.90;;;;;;4974811;28;20177;-56
2022/02/22 03:43:15;;;;;;;8.70;2.50;;;4.00;99.90;;;;;;4974795;28;20170;-59
2022/02/22 03:45:41;;;;;;;4.03;2.10;;;4.00;99.90;;;;;;4973667;28;20217;-54
2022/02/22 03:48:07;;;;;;;6.10;2.57;;;4.00;99.90;;;;;;4974678;28;20245;-55
2022/02/22 03:50:33;;;;;;;4.13;2.27;;;4.10;99.90;;;;;;4973642;28;20182;-57
2022/02/22 03:52:58;;;;;;;5.20;2.10;;;4.20;99.90;;;;;;4974477;28;20270;-58
2022/02/22 03:55:24;;;;;;;6.03;2.10;;;4.00;99.90;;;;;;4974532;28;20787;-55
2022/02/22 03:57:50;;;;;;;4.93;2.23;;;4.00;99.90;;;;;;4974614;28;20202;-56
2022/02/22 04:00:20;;;;;;;4.13;1.90;;;4.00;99.90;;;;;;4973357;28;20177;-58
2022/02/22 04:02:46;;;;;;;3.37;1.90;;;4.10;99.90;;;;;;4974012;28;20170;-56
2022/02/22 04:05:12;;;;;;;5.37;2.13;;;4.10;99.90;;;;;;4972791;28;20620;-56
2022/02/22 04:07:38;;;;;;;5.40;2.13;;;4.00;99.90;;;;;;4974316;28;20178;-60
2022/02/22 04:10:05;;;;;;;5.47;2.27;;;4.10;99.90;;;;;;4974207;28;20228;-54
2022/02/22 04:12:31;;;;;;;8.70;2.73;;;4.10;99.90;;;;;;4974158;28;20185;-59
2022/02/22 04:14:57;;;;;;;5.87;2.17;;;4.00;99.90;;;;;;4973949;28;20610;-54
2022/02/22 04:17:22;;;;;;;3.67;2.17;;;4.00;99.90;;;;;;4973880;28;20206;-57
2022/02/22 04:19:49;;;;;;;2.90;2.07;;;4.00;99.90;;;;;;4974357;28;20221;-57
2022/02/22 04:22:15;;;;;;;4.53;2.03;;;4.00;99.90;;;;;;4973089;28;20189;-56
2022/02/22 04:24:41;;;;;;;3.37;1.70;;;3.90;99.90;;;;;;4973844;28;20624;-53
2022/02/22 04:27:07;;;;;;;4.53;2.33;;;3.90;99.90;;;;;;4973924;28;20212;-58
2022/02/22 04:29:33;;;;;;;4.47;2.27;;;3.90;99.90;;;;;;4973907;28;20733;-55
2022/02/22 04:32:00;;;;;;;3.23;1.80;;;3.90;99.90;;;;;;4973501;28;20180;-54
2022/02/22 04:34:26;;;;;;;8.03;2.50;;;3.90;99.90;;;;;;4973378;28;20174;-56
2022/02/22 04:36:52;;;;;;;5.20;2.30;;;3.90;99.90;;;;;;4973683;28;20697;-54
2022/02/22 04:39:17;;;;;;;4.10;2.00;;;4.00;99.90;;;;;;4973799;28;20185;-58
2022/02/22 04:41:43;;;;;;;4.27;2.10;;;4.00;99.90;;;;;;4973780;28;20170;-57
2022/02/22 04:44:08;;;;;;;4.13;2.27;;;3.90;99.90;;;;;;4973710;28;20513;-56
2022/02/22 04:46:34;;;;;;;3.63;1.80;;;4.00;99.90;;;;;;4973287;28;20204;-54
2022/02/22 04:48:59;;;;;;;2.57;1.53;;;4.00;99.90;;;;;;4973692;28;20192;-55
2022/02/22 04:51:25;;;;;;;3.57;1.90;;;4.00;99.90;;;;;;4973651;28;20256;-55
2022/02/22 04:53:50;;;;;;;4.33;2.20;;;4.00;99.90;;;;;;4973725;28;20178;-61
2022/02/22 04:56:16;;;;;;;4.27;2.00;;;3.90;99.90;;;;;;4973227;28;20194;-61
2022/02/22 04:58:42;;;;;;;3.87;1.83;;;3.90;99.90;;;;;;4973058;28;20182;-59
2022/02/22 05:01:08;;;;;;;7.07;2.07;;;4.00;99.90;;;;;;4973004;28;20197;-62
2022/02/22 05:03:33;;;;;;;5.50;2.10;;;4.00;99.90;;;;;;4973678;28;20651;-54
2022/02/22 05:05:59;;;;;;;5.57;2.00;;;3.90;99.90;;;;;;5060021;22;20236;-61
2022/02/22 05:08:25;;;;;;;5.77;2.10;;;3.80;99.90;;;;;;5010086;28;20242;-61
2022/02/22 05:10:50;;;;;;;6.23;2.77;;;3.80;99.90;;;;;;5010825;28;20184;-61
2022/02/22 05:13:16;;;;;;;4.70;2.13;;;3.80;99.90;;;;;;5011781;28;20177;-59
2022/02/22 05:15:41;;;;;;;6.77;1.90;;;3.80;99.90;;;;;;5011084;28;20320;-59
2022/02/22 05:18:07;;;;;;;4.27;1.93;;;3.80;99.90;;;;;;5011780;28;20240;-60
2022/02/22 05:20:32;;;;;;;8.57;2.37;;;3.80;99.90;;;;;;5011789;28;20177;-60
2022/02/22 05:22:59;;;;;;;9.93;2.00;;;3.90;99.90;;;;;;5005193;28;20215;-61
2022/02/22 05:25:24;;;;;;;4.37;2.23;;;3.90;99.90;;;;;;4991029;28;20208;-61
2022/02/22 05:27:50;;;;;;;4.90;2.07;;;3.90;99.90;;;;;;4992063;28;20181;-62
2022/02/22 05:30:17;;;;;;;8.33;2.43;;;3.90;99.90;;;;;;4992185;28;20177;-60
2022/02/22 05:32:44;;;;;;;6.30;2.40;;;3.90;99.90;;;;;;4992368;28;20550;-61
2022/02/22 05:35:12;;;;;;;3.97;2.00;;;3.90;99.90;;;;;;4992068;28;20208;-61
2022/02/22 05:37:38;;;;;;;7.07;1.90;;;3.90;99.90;;;;;;4992260;28;20292;-61
2022/02/22 05:40:05;;;;;;;4.37;2.20;;;4.00;99.90;;;;;;4991950;28;20277;-57
2022/02/22 05:42:31;;;;;;;6.20;2.13;;;4.10;99.90;;;;;;4991900;28;20677;-62
2022/02/22 05:44:57;;;;;;;6.50;2.17;;;4.10;99.90;;;;;;4991837;28;20173;-61
2022/02/22 05:47:23;;;;;;;5.17;2.13;;;4.00;99.90;;;;;;4992463;28;20169;-56
2022/02/22 05:49:49;;;;;;;6.23;2.33;;;3.90;99.90;;;;;;4991963;28;20303;-62
2022/02/22 05:52:15;;;;;;;5.77;2.63;;;3.90;99.90;;;;;;4991740;28;20181;-62
2022/02/22 05:54:42;;;;;;;4.63;2.10;;;3.90;99.90;;;;;;4991753;28;20240;-59
2022/02/22 05:57:09;;;;;;;6.73;2.17;;;3.90;99.90;;;;;;4992030;28;20235;-58
2022/02/22 05:59:34;;;;;;;6.67;2.37;;;3.90;99.90;;;;;;4992110;28;20162;-61
2022/02/22 06:02:00;;;;;;;5.67;1.77;;;3.90;99.90;;;;;;4992188;28;20192;-59
2022/02/22 06:04:26;;;;;;;5.97;2.00;;;4.00;99.90;;;;;;4991985;28;20197;-62
2022/02/22 06:06:52;;;;;;;6.13;2.40;;;4.00;99.90;;;;;;4991782;28;20217;-61
2022/02/22 06:09:18;;;;;;;9.00;2.30;;;3.90;99.90;;;;;;4991554;28;20209;-62
2022/02/22 06:11:44;;;;;;;6.57;2.43;;;3.90;99.90;;;;;;4991781;28;20208;-62
2022/02/22 06:14:09;;;;;;;7.63;2.60;;;3.90;99.90;;;;;;4991664;28;20611;-61
2022/02/22 06:16:35;;;;;;;7.00;2.40;;;4.00;99.90;;;;;;4991505;28;20248;-62
2022/02/22 06:19:01;;;;;;;6.07;2.37;;;4.00;99.90;;;;;;4991866;28;20231;-62
2022/02/22 06:21:26;;;;;;;6.60;2.23;;;4.00;99.90;;;;;;4991538;28;20173;-61
2022/02/22 06:23:52;;;;;;;5.43;1.90;;;3.90;99.90;;;;;;4993070;28;20223;-61
2022/02/22 06:26:17;;;;;;;6.17;2.07;;;3.90;99.90;;;;;;4978933;28;20575;-61
2022/02/22 06:28:45;;;;;;;6.33;2.27;;;3.90;99.90;;;;;;4994479;28;20181;-61
2022/02/22 06:31:11;;;;;;;8.17;2.30;;;3.90;99.90;;;;;;4985802;28;20174;-62
2022/02/22 06:33:36;;;;;;;8.17;2.40;;;3.90;99.90;;;;;;4975571;28;20674;-62
2022/02/22 06:36:02;;;;;;;7.50;2.57;;;3.80;99.90;;;;;;4978764;28;20206;-62
2022/02/22 06:38:28;;;;;;;7.50;1.87;;;3.80;99.90;;;;;;4992478;28;20205;-59
2022/02/22 06:40:53;;;;;;;7.87;2.33;;;3.80;99.90;;;;;;4991374;28;20177;-61
2022/02/22 06:43:19;;;;;;;8.03;2.27;;;3.90;99.90;;;;;;4976091;28;20242;-58
2022/02/22 06:45:44;;;;;;;8.60;2.40;;;3.90;99.90;;;;;;4975335;28;20201;-62
2022/02/22 06:48:11;;;;;;;8.50;2.50;;;3.90;99.90;;;;;;4975584;28;20188;-60
2022/02/22 06:50:37;;;;;;;4.33;2.10;;;3.90;99.90;;;;;;4975904;28;20198;-61
2022/02/22 06:53:04;;;;;;;7.20;2.20;;;3.90;99.90;;;;;;4979212;28;20177;-60
2022/02/22 06:55:29;;;;;;;8.07;2.50;;;3.80;99.90;;;;;;4995205;28;20615;-59
2022/02/22 06:58:03;;;;;;;8.70;2.83;;;3.90;99.90;;;;;;4994771;28;20237;-59
2022/02/22 07:00:30;;;;;;;5.40;2.13;;;3.90;99.90;;;;;;4995521;28;20169;-59
2022/02/22 07:02:55;;;;;;;8.20;2.60;;;3.90;99.90;;;;;;4995249;28;20198;-60
2022/02/22 07:05:21;;;;;;;4.83;1.90;;;3.90;99.90;;;;;;4994965;28;20697;-61
2022/02/22 07:07:46;;;;;;;8.90;2.40;;;4.30;99.90;;;;;;4995143;28;20209;-59
2022/02/22 07:10:12;;;;;;;5.70;2.27;;;3.90;99.90;;;;;;4994880;28;20176;-59
2022/02/22 07:12:38;;;;;;;6.83;2.70;;;3.80;99.90;;;;;;4995184;28;20526;-58
2022/02/22 07:15:05;;;;;;;6.83;2.27;;;3.80;99.90;;;;;;4993195;28;20685;-61
2022/02/22 07:17:31;;;;;;;5.73;2.33;;;3.80;99.90;;;;;;4986859;28;20235;-60
2022/02/22 07:19:56;;;;;;;6.63;2.47;;;3.90;99.90;;;;;;4992806;28;20177;-58
2022/02/22 07:22:22;;;;;;;5.17;2.50;;;3.80;99.90;;;;;;4985571;28;20192;-60
2022/02/22 07:24:48;;;;;;;7.80;2.43;;;3.80;99.90;;;;;;4994354;28;20177;-60
2022/02/22 07:27:13;;;;;;;5.67;2.07;;;3.80;99.90;;;;;;4994880;28;20228;-60
2022/02/22 07:29:39;;;;;;;6.57;2.27;;;3.80;99.90;;;;;;4991633;28;20182;-59
2022/02/22 07:32:05;;;;;;;9.77;2.57;;;3.80;99.90;;;;;;4975342;28;20232;-61
2022/02/22 07:34:30;;;;;;;9.17;2.43;;;3.80;99.90;;;;;;4975221;28;20229;-60
2022/02/22 07:36:56;;;;;;;6.10;2.00;;;3.80;99.90;;;;;;4974974;28;20205;-59
2022/02/22 07:39:21;;;;;;;8.20;2.93;;;3.80;99.90;;;;;;4993572;28;20232;-57
2022/02/22 07:41:47;;;;;;;10.53;2.20;;;3.70;99.90;;;;;;4994319;28;20181;-58
2022/02/22 07:44:12;;;;;;;8.30;2.67;;;3.70;99.90;;;;;;4994500;28;20173;-60
2022/02/22 07:46:38;;;;;;;4.57;1.83;;;3.80;99.90;;;;;;4994422;28;20203;-58
2022/02/22 07:49:04;;;;;;;7.07;2.10;;;4.00;99.90;;;;;;4994450;28;20177;-61
2022/02/22 07:51:29;;;;;;;8.40;2.80;;;4.10;99.90;;;;;;4994324;28;20651;-60
2022/02/22 07:53:55;;;;;;;7.13;2.10;;;4.20;99.90;;;;;;4994489;28;20689;-60
2022/02/22 07:56:20;;;;;;;8.30;2.53;;;4.30;99.90;;;;;;4994084;28;20232;-60
2022/02/22 07:58:46;;;;;;;9.40;2.43;;;4.50;99.90;;;;;;4994237;28;20181;-60
2022/02/22 08:01:11;;;;;;;8.40;2.80;;;4.70;99.90;;;;;;4994196;28;20621;-60
2022/02/22 08:03:38;;;;;;;5.67;2.80;;;5.00;99.90;;;;;;4994345;28;20516;-56
2022/02/22 08:06:04;;;;;;;11.30;2.67;;;5.30;99.90;;;;;;4993941;28;20217;-57
2022/02/22 08:08:30;;;;;;;7.30;2.23;;;5.40;99.90;;;;;;4993867;28;20211;-59
2022/02/22 08:10:55;;;;;;;13.17;2.90;;;5.40;99.90;;;;;;4994059;28;20188;-59
2022/02/22 08:13:21;;;;;;;9.23;2.83;;;5.30;99.90;;;;;;4994106;28;20208;-60
2022/02/22 08:15:46;;;;;;;5.73;2.10;;;5.10;99.90;;;;;;4993595;28;20708;-59
2022/02/22 08:18:12;;;;;;;8.40;2.57;;;5.20;99.90;;;;;;4993660;28;20247;-56
2022/02/22 08:20:41;;;;;;;10.37;2.93;;;5.20;99.90;;;;;;4993722;28;20539;-60
2022/02/22 08:23:07;;;;;;;6.77;2.23;;;5.20;99.90;;;;;;4993640;28;20174;-58
2022/02/22 08:25:33;;;;;;;7.00;2.60;;;5.10;99.90;;;;;;4993510;28;20193;-60
2022/02/22 08:27:58;;;;;;;9.23;2.87;;;5.50;99.90;;;;;;4993513;28;20705;-58
2022/02/22 08:30:24;;;;;;;10.80;2.80;;;5.60;99.90;;;;;;4993573;28;20184;-60
2022/02/22 08:32:50;;;;;;;6.60;2.03;;;5.70;99.90;;;;;;4993566;28;20200;-59
2022/02/22 08:35:15;;;;;;;6.27;2.10;;;6.20;99.90;;;;;;4993345;28;20667;-55
2022/02/22 08:37:41;;;;;;;5.47;2.10;;;6.80;99.90;;;;;;4993398;28;20274;-59
2022/02/22 08:40:07;;;;;;;10.53;2.90;;;7.50;99.90;;;;;;4993266;28;20180;-56
2022/02/22 08:42:32;;;;;;;7.90;2.00;;;7.50;99.90;;;;;;4993468;28;20173;-61
2022/02/22 08:44:58;;;;;;;7.10;2.67;;;7.20;99.90;;;;;;4993105;28;20204;-59
2022/02/22 08:47:23;;;;;;;6.53;2.30;;;6.50;99.90;;;;;;4992803;28;20180;-59
2022/02/22 08:49:49;;;;;;;5.97;2.13;;;6.00;99.90;;;;;;4992944;28;20173;-60
2022/02/22 08:52:17;;;;;;;8.37;3.07;;;5.90;99.90;;;;;;4993091;28;20256;-60
2022/02/22 08:54:43;;;;;;;11.80;2.77;;;5.70;99.90;;;;;;4993027;28;20181;-59
2022/02/22 08:57:09;;;;;;;6.13;2.60;;;5.60;99.90;;;;;;4992899;28;20708;-58
2022/02/22 08:59:34;;;;;;;7.27;2.47;;;5.50;99.90;;;;;;4992932;28;20201;-61
2022/02/22 09:02:00;;;;;;;8.67;2.60;;;5.40;99.90;;;;;;4992979;28;20543;-60
2022/02/22 09:04:26;;;;;;;7.63;2.50;;;5.30;99.90;;;;;;4992912;28;20197;-55
2022/02/22 09:06:51;;;;;;;5.83;2.33;;;5.30;99.90;;;;;;4992548;28;20689;-58
2022/02/22 09:09:17;;;;;;;5.97;2.37;;;5.30;99.90;;;;;;4992815;28;20200;-58
2022/02/22 09:11:42;;;;;;;7.63;2.37;;;5.70;99.90;;;;;;4992850;28;20180;-61
2022/02/22 09:14:08;;;;;;;7.77;2.67;;;5.90;99.90;;;;;;4992980;28;20188;-60
2022/02/22 09:16:33;;;;;;;7.33;2.50;;;6.30;99.90;;;;;;4992566;28;20201;-60
2022/02/22 09:18:59;;;;;;;9.77;2.67;;;6.50;99.90;;;;;;4992708;28;20212;-61
2022/02/22 09:21:26;;;;;;;6.80;2.47;;;6.50;99.90;;;;;;4992740;28;20177;-59
2022/02/22 09:23:51;;;;;;;5.43;2.40;;;6.20;99.90;;;;;;4992734;28;20173;-56
2022/02/22 09:26:17;;;;;;;6.80;2.07;;;5.70;99.90;;;;;;4992533;28;20201;-54
2022/02/22 09:28:45;;;;;;;6.77;2.60;;;5.20;99.90;;;;;;4992627;28;20181;-56
2022/02/22 09:31:10;;;;;;;6.77;2.30;;;5.10;99.90;;;;;;4992705;28;20285;-59
2022/02/22 09:33:36;;;;;;;7.03;2.73;;;5.00;99.90;;;;;;4992588;28;20200;-58
2022/02/22 09:36:02;;;;;;;9.27;2.50;;;5.10;99.90;;;;;;4992392;28;20196;-58
2022/02/22 09:38:27;;;;;;;7.73;2.53;;;5.20;99.90;;;;;;4991863;28;20756;-60
2022/02/22 09:40:53;;;;;;;7.13;2.47;;;5.20;99.90;;;;;;4992420;28;20184;-59
2022/02/22 09:43:18;;;;;;;7.03;2.20;;;5.40;99.90;;;;;;4992452;28;20185;-60
2022/02/22 09:45:44;;;;;;;4.23;2.10;;;6.20;99.90;;;;;;4992362;28;20193;-59
2022/02/22 09:48:10;;;;;;;4.50;2.17;;;6.90;99.90;;;;;;4992418;28;20273;-60
2022/02/22 09:50:36;;;;;;;6.80;2.00;;;7.70;99.90;;;;;;4992379;28;20173;-61
2022/02/22 09:53:02;;;;;;;7.00;2.23;;;8.20;99.90;;;;;;4992446;28;20188;-61
2022/02/22 09:55:28;;;;;;;6.13;2.30;;;8.10;99.90;;;;;;4992391;28;20240;-61
2022/02/22 09:57:55;;;;;;;7.60;2.10;;;7.40;99.90;;;;;;4992582;28;20204;-61
2022/02/22 10:00:31;;;;;;;11.33;5.23;;;6.70;99.90;;;;;;4996585;28;20184;-58
2022/02/22 10:02:56;;;;;;;14.77;8.90;;;6.40;99.90;;;;;;4996328;28;20172;-60
2022/02/22 10:05:24;;;;;;;9.97;5.80;;;6.30;99.90;;;;;;4996049;28;20682;-61
2022/02/22 10:07:57;;;;;;;7.40;3.07;;;6.40;99.90;;;;;;4996461;28;20622;-61
2022/02/22 10:10:40;;;;;;;14.30;9.10;;;6.60;99.90;;;;;;4996402;28;20263;-61
2022/02/22 10:13:07;;;;;;;6.00;2.70;;;8.70;99.90;;;;;;4996268;28;20200;-62
2022/02/22 10:15:41;;;;;;;5.60;2.13;;;11.60;99.90;;;;;;4995925;28;20198;-61
2022/02/22 10:18:08;;;;;;;2.23;1.33;;;13.50;99.90;;;;;;4995961;28;20204;-61
2022/02/22 10:20:34;;;;;;;4.73;1.87;;;15.40;99.40;;;;;;4996093;28;20261;-60
2022/02/22 10:23:01;;;;;;;4.50;1.60;;;17.80;94.50;;;;;;4996136;28;20179;-60
2022/02/22 10:25:27;;;;;;;3.97;1.87;;;14.80;91.20;;;;;;4995893;28;20216;-62
2022/02/22 10:27:58;;;;;;;6.40;2.20;;;12.80;97.60;;;;;;4995848;28;20182;-63
2022/02/22 10:30:46;;;;;;;3.77;1.90;;;12.50;97.80;;;;;;4996279;28;20242;-57
2022/02/22 10:33:17;;;;;;;4.83;1.93;;;12.30;97.90;;;;;;4995850;28;20277;-59
2022/02/22 10:35:51;;;;;;;3.60;2.00;;;12.10;97.30;;;;;;4995762;28;20248;-57
2022/02/22 10:38:23;;;;;;;3.67;1.70;;;11.10;97.30;;;;;;4995624;28;20255;-57
2022/02/22 10:41:13;;;;;;;4.43;2.13;;;10.40;99.90;;;;;;4995819;28;20203;-56
2022/02/22 10:43:40;;;;;;;5.40;1.90;;;11.80;98.10;;;;;;4995734;28;20165;-58
2022/02/22 10:46:09;;;;;;;5.10;1.70;;;13.90;95.10;;;;;;4995548;28;20268;-58
2022/02/22 10:48:43;;;;;;;6.77;2.43;;;15.20;96.90;;;;;;4995281;28;20223;-59
2022/02/22 10:51:11;;;;;;;4.23;1.73;;;18.10;91.70;;;;;;4995652;28;20579;-59
2022/02/22 10:53:39;;;;;;;4.20;2.00;;;19.00;88.10;;;;;;4995421;28;20277;-60
2022/02/22 10:56:08;;;;;;;6.50;2.10;;;19.40;83.80;;;;;;4995344;28;20193;-59
2022/02/22 10:58:33;;;;;;;5.77;2.20;;;17.40;82.30;;;;;;4995239;28;20287;-60
2022/02/22 11:00:59;;;;;;;5.77;2.00;;;16.20;86.70;;;;;;4995403;28;20255;-61
2022/02/22 11:03:25;;;;;;;4.60;1.67;;;16.20;87.00;;;;;;4995278;28;20165;-60
2022/02/22 11:05:51;;;;;;;4.73;2.13;;;15.10;90.10;;;;;;4994877;28;20205;-60
2022/02/22 11:08:25;;;;;;;3.37;1.80;;;13.80;88.60;;;;;;4995232;28;20263;-58
2022/02/22 11:10:55;;;;;;;5.27;1.80;;;13.30;90.60;;;;;;4994456;28;20216;-55
2022/02/22 11:13:28;;;;;;;5.77;2.17;;;12.80;92.50;;;;;;4990339;28;20678;-57
2022/02/22 11:15:54;;;;;;;6.60;2.13;;;12.50;94.00;;;;;;4994482;28;20281;-59
2022/02/22 11:18:22;;;;;;;4.60;2.10;;;12.40;93.90;;;;;;4994777;28;20287;-59
2022/02/22 11:20:48;;;;;;;5.10;1.83;;;12.30;93.80;;;;;;4994961;28;20674;-55
2022/02/22 11:23:25;;;;;;;3.03;1.50;;;11.30;94.30;;;;;;4994919;28;20201;-58
2022/02/22 11:25:52;;;;;;;4.30;1.93;;;10.30;96.50;;;;;;4994796;28;20189;-56
2022/02/22 11:28:17;;;;;;;5.57;1.93;;;9.50;99.50;;;;;;4994513;28;20223;-53
2022/02/22 11:30:43;;;;;;;5.67;1.87;;;9.50;99.90;;;;;;4994565;28;20180;-56
2022/02/22 11:33:15;;;;;;;5.90;2.00;;;9.90;99.80;;;;;;4994746;28;20173;-54
2022/02/22 11:35:55;;;;;;;5.47;1.63;;;10.90;99.90;;;;;;4994594;28;20289;-59
2022/02/22 11:38:20;;;;;;;6.97;2.27;;;11.10;98.40;;;;;;4994414;28;20239;-59
2022/02/22 11:40:49;;;;;;;5.70;1.60;;;10.00;99.40;;;;;;4994570;28;20619;-57
2022/02/22 11:43:17;;;;;;;5.13;1.87;;;9.20;99.90;;;;;;4994466;28;20168;-59
2022/02/22 11:45:49;;;;;;;5.13;1.93;;;8.50;99.90;;;;;;4994001;28;20328;-59
2022/02/22 11:48:25;;;;;;;2.97;1.70;;;8.00;99.90;;;;;;4994269;28;20180;-59
2022/02/22 11:50:57;;;;;;;7.47;2.07;;;7.90;99.90;;;;;;4994331;28;20708;-57
2022/02/22 11:53:27;;;;;;;7.90;2.23;;;7.70;99.90;;;;;;4994294;28;20170;-57
2022/02/22 11:55:55;;;;;;;4.57;2.20;;;7.40;99.90;;;;;;4994086;28;20200;-58
2022/02/22 11:58:30;;;;;;;5.47;1.63;;;8.10;99.90;;;;;;4994285;28;20240;-55
2022/02/22 12:01:00;;;;;;;4.47;1.83;;;9.50;99.90;;;;;;4994048;28;20646;-59
2022/02/22 12:03:27;;;;;;;5.80;2.17;;;9.50;99.90;;;;;;4994180;28;20230;-58
2022/02/22 12:05:57;;;;;;;6.80;2.00;;;8.50;99.90;;;;;;4993623;28;20220;-59
2022/02/22 12:08:25;;;;;;;6.37;2.13;;;7.80;99.90;;;;;;4994062;28;20173;-58
2022/02/22 12:10:59;;;;;;;8.90;2.50;;;7.40;99.90;;;;;;4994227;28;20188;-59
2022/02/22 12:13:27;;;;;;;3.67;1.80;;;7.10;99.90;;;;;;4993919;28;20205;-58
2022/02/22 12:15:53;;;;;;;10.73;2.03;;;6.90;99.90;;;;;;4992334;28;20749;-54
2022/02/22 12:18:22;;;;;;;6.43;2.57;;;6.70;99.90;;;;;;4993581;28;20251;-56
2022/02/22 12:20:50;;;;;;;6.33;2.10;;;6.60;99.90;;;;;;4993088;28;20255;-54
2022/02/22 12:23:19;;;;;;;6.93;2.57;;;6.60;99.90;;;;;;4993770;28;20184;-53
2022/02/22 12:25:45;;;;;;;8.17;2.37;;;6.60;99.90;;;;;;4993597;28;20226;-57
2022/02/22 12:28:11;;;;;;;7.73;2.30;;;6.70;99.90;;;;;;4993607;28;20252;-54
2022/02/22 12:30:39;;;;;;;8.00;2.27;;;6.70;99.90;;;;;;4993620;28;20276;-59
2022/02/22 12:33:06;;;;;;;8.43;2.30;;;6.90;99.90;;;;;;4993533;28;20192;-58
2022/02/22 12:35:42;;;;;;;6.33;3.00;;;7.10;99.90;;;;;;4993317;28;20686;-58
2022/02/22 12:38:23;;;;;;;10.27;3.20;;;7.10;99.90;;;;;;4993295;28;20205;-59
2022/02/22 12:40:51;;;;;;;5.57;2.43;;;7.10;99.90;;;;;;4993384;28;20196;-58
2022/02/22 12:43:18;;;;;;;8.27;2.00;;;7.10;99.90;;;;;;4992154;28;20273;-57
2022/02/22 12:45:49;;;;;;;8.67;2.40;;;7.00;99.90;;;;;;4993084;28;20229;-55
2022/02/22 12:48:17;;;;;;;6.67;2.40;;;6.70;99.90;;;;;;4993508;28;20706;-50
2022/02/22 12:50:51;;;;;;;7.53;2.63;;;6.40;99.90;;;;;;4993080;28;20181;-58
2022/02/22 12:53:26;;;;;;;7.30;2.53;;;6.30;99.90;;;;;;4993358;28;20178;-59